createdAt,value
2023-04-23T00:02:12.209Z,99846.31
2023-04-23T00:04:40.524Z,99843.91
2023-04-23T00:07:09.318Z,99842.56
2023-04-23T00:09:38.719Z,99846.22
2023-04-23T00:12:07.913Z,99844.91
2023-04-23T00:14:36.346Z,99846.22
2023-04-23T00:17:04.289Z,99842.84
2023-04-23T00:19:32.230Z,99844.50
2023-04-23T00:22:00.173Z,99847.16
2023-04-23T00:24:28.135Z,99850.50
2023-04-23T00:26:57.422Z,99848.16
2023-04-23T00:29:25.410Z,99850.09
2023-04-23T00:31:53.349Z,99848.41
2023-04-23T00:34:21.430Z,99850.44
2023-04-23T00:36:49.361Z,99844.25
2023-04-23T00:39:17.315Z,99843.41
2023-04-23T00:41:45.303Z,99846.09
2023-04-23T00:44:14.621Z,99847.91
2023-04-23T00:46:42.556Z,99850.19
2023-04-23T00:49:10.485Z,99846.34
2023-04-23T00:51:38.387Z,99848.34
2023-04-23T00:54:06.507Z,99846.97
2023-04-23T00:56:34.481Z,99848.03
2023-04-23T00:59:03.364Z,99850.56
2023-04-23T01:01:33.419Z,99844.28
2023-04-23T01:04:01.579Z,99848.34
2023-04-23T01:06:31.772Z,99847.88
2023-04-23T01:08:59.747Z,99844.28
2023-04-23T01:11:27.665Z,99842.47
2023-04-23T01:13:56.222Z,99846.03
2023-04-23T01:16:24.214Z,99838.69
2023-04-23T01:18:53.812Z,99834.69
2023-04-23T01:21:21.958Z,99836.69
2023-04-23T01:23:51.352Z,99839.38
2023-04-23T01:26:19.694Z,99833.00
2023-04-23T01:28:47.644Z,99839.66
2023-04-23T01:31:15.762Z,99831.63
2023-04-23T01:33:44.049Z,99839.31
2023-04-23T01:36:11.956Z,99834.28
2023-04-23T01:38:39.967Z,99833.78
2023-04-23T01:41:09.325Z,99832.41
2023-04-23T01:43:37.237Z,99835.38
2023-04-23T01:46:05.470Z,99833.56
2023-04-23T01:48:33.443Z,99830.53
2023-04-23T01:51:01.470Z,99834.50
2023-04-23T01:53:29.370Z,99841.19
2023-04-23T01:55:57.447Z,99841.50
2023-04-23T01:58:26.790Z,99847.81
2023-04-23T02:00:54.739Z,99837.78
2023-04-23T02:03:22.812Z,99842.72
2023-04-23T02:05:50.903Z,99840.69
2023-04-23T02:08:18.956Z,99844.66
2023-04-23T02:10:46.955Z,99847.81
2023-04-23T02:13:14.917Z,99850.34
2023-04-23T02:15:44.353Z,99854.34
2023-04-23T02:18:12.299Z,99851.69
2023-04-23T02:20:41.432Z,99850.00
2023-04-23T02:23:09.433Z,99854.22
2023-04-23T02:25:38.554Z,99855.06
2023-04-23T02:28:07.415Z,99847.72
2023-04-23T02:30:35.469Z,99852.06
2023-04-23T02:33:05.192Z,99853.38
2023-04-23T02:35:33.162Z,99844.66
2023-04-23T02:38:01.140Z,99845.00
2023-04-23T02:40:29.263Z,99842.47
2023-04-23T02:42:57.205Z,99841.78
2023-04-23T02:45:25.303Z,99846.44
2023-04-23T02:47:53.630Z,99845.94
2023-04-23T02:50:23.203Z,99843.84
2023-04-23T02:52:51.258Z,99848.69
2023-04-23T02:55:19.266Z,99849.69
2023-04-23T02:57:47.213Z,99847.16
2023-04-23T03:00:17.103Z,99863.19
2023-04-23T03:02:45.305Z,99867.84
2023-04-23T03:05:13.413Z,99856.56
2023-04-23T03:07:42.896Z,99853.88
2023-04-23T03:10:11.165Z,99860.50
2023-04-23T03:12:39.257Z,99868.81
2023-04-23T03:15:08.297Z,99870.22
2023-04-23T03:17:36.304Z,99870.06
2023-04-23T03:20:04.385Z,99870.50
2023-04-23T03:22:32.298Z,99870.50
2023-04-23T03:25:01.656Z,99872.19
2023-04-23T03:27:29.631Z,99878.06
2023-04-23T03:29:57.586Z,99882.59
2023-04-23T03:32:25.810Z,99889.59
2023-04-23T03:34:53.779Z,99886.25
2023-04-23T03:37:21.727Z,99880.91
2023-04-23T03:39:49.710Z,99884.25
2023-04-23T03:42:19.043Z,99887.22
2023-04-23T03:44:46.938Z,99897.22
2023-04-23T03:47:14.887Z,99889.06
2023-04-23T03:49:42.833Z,99898.28
2023-04-23T03:52:10.835Z,99897.69
2023-04-23T03:54:38.852Z,99897.06
2023-04-23T03:57:07.307Z,99900.44
2023-04-23T03:59:36.868Z,99901.72
2023-04-23T04:02:05.132Z,99896.66
2023-04-23T04:04:33.626Z,99901.09
2023-04-23T04:07:01.835Z,99910.25
2023-04-23T04:09:29.856Z,99906.28
2023-04-23T04:11:57.811Z,99906.03
2023-04-23T04:14:25.745Z,99907.06
2023-04-23T04:16:55.060Z,99914.94
2023-04-23T04:19:22.996Z,99913.13
2023-04-23T04:21:51.269Z,99911.19
2023-04-23T04:24:19.320Z,99917.41
2023-04-23T04:26:47.686Z,99918.13
2023-04-23T04:29:15.888Z,99914.66
2023-04-23T04:31:43.893Z,99917.00
2023-04-23T04:34:14.891Z,99906.94
2023-04-23T04:36:43.227Z,99907.25
2023-04-23T04:39:11.288Z,99899.38
2023-04-23T04:41:39.235Z,99905.72
2023-04-23T04:44:07.351Z,99904.25
2023-04-23T04:46:40.368Z,99900.38
2023-04-23T04:49:09.324Z,99902.00
2023-04-23T04:51:39.610Z,99903.38
2023-04-23T04:54:07.752Z,99902.25
2023-04-23T04:56:35.717Z,99904.34
2023-04-23T04:59:04.070Z,99907.22
2023-04-23T05:01:32.618Z,99912.91
2023-04-23T05:04:00.877Z,99909.84
2023-04-23T05:06:29.804Z,99908.41
2023-04-23T05:08:59.092Z,99916.47
2023-04-23T05:11:27.070Z,99921.84
2023-04-23T05:13:55.049Z,99914.94
2023-04-23T05:16:23.344Z,99917.84
2023-04-23T05:18:52.162Z,99920.56
2023-04-23T05:21:20.188Z,99922.41
2023-04-23T05:23:48.587Z,99909.69
2023-04-23T05:26:18.276Z,99919.44
2023-04-23T05:28:46.284Z,99916.84
2023-04-23T05:31:14.332Z,99915.41
2023-04-23T05:33:49.730Z,99917.59
2023-04-23T05:36:18.903Z,99915.09
2023-04-23T05:38:46.844Z,99920.03
2023-04-23T05:41:14.793Z,99914.81
2023-04-23T05:43:44.332Z,99923.19
2023-04-23T05:46:12.382Z,99930.31
2023-04-23T05:48:40.383Z,99917.44
2023-04-23T05:51:08.372Z,99923.41
2023-04-23T05:53:36.543Z,99920.13
2023-04-23T05:56:04.627Z,99920.09
2023-04-23T05:58:32.590Z,99927.63
2023-04-23T06:01:01.969Z,99929.72
2023-04-23T06:03:30.138Z,99929.25
2023-04-23T06:05:58.390Z,99931.75
2023-04-23T06:08:26.484Z,99932.28
2023-04-23T06:10:55.920Z,99932.19
2023-04-23T06:13:23.887Z,99928.63
2023-04-23T06:15:51.900Z,99907.75
2023-04-23T06:18:21.254Z,99931.34
2023-04-23T06:20:51.575Z,99932.53
2023-04-23T06:23:19.630Z,99927.78
2023-04-23T06:25:47.595Z,99924.38
2023-04-23T06:28:16.204Z,99932.22
2023-04-23T06:30:44.192Z,99921.94
2023-04-23T06:33:12.553Z,99929.69
2023-04-23T06:35:41.858Z,99916.72
2023-04-23T06:38:09.821Z,99915.69
2023-04-23T06:40:37.823Z,99914.00
2023-04-23T06:43:06.323Z,99919.00
2023-04-23T06:45:34.279Z,99913.72
2023-04-23T06:48:02.253Z,99910.59
2023-04-23T06:50:31.155Z,99915.09
2023-04-23T06:53:00.443Z,99918.16
2023-04-23T06:55:29.165Z,99916.28
2023-04-23T06:57:57.294Z,99909.06
2023-04-23T07:00:25.293Z,99917.75
2023-04-23T07:02:54.525Z,99914.47
2023-04-23T07:05:22.636Z,99920.31
2023-04-23T07:07:50.598Z,99920.66
2023-04-23T07:10:20.019Z,99917.53
2023-04-23T07:12:47.954Z,99915.34
2023-04-23T07:15:15.930Z,99922.50
2023-04-23T07:17:43.927Z,99928.66
2023-04-23T07:20:12.574Z,99925.78
2023-04-23T07:22:40.626Z,99921.00
2023-04-23T07:25:09.768Z,99920.75
2023-04-23T07:27:39.043Z,99922.78
2023-04-23T07:30:10.195Z,99917.25
2023-04-23T07:32:38.381Z,99917.63
2023-04-23T07:35:07.209Z,99914.94
2023-04-23T07:37:35.148Z,99909.94
2023-04-23T07:40:03.117Z,99915.34
2023-04-23T07:42:31.030Z,99912.97
2023-04-23T07:45:00.378Z,99908.78
2023-04-23T07:47:28.405Z,99911.19
2023-04-23T07:49:56.411Z,99914.31
2023-04-23T07:52:24.339Z,99899.44
2023-04-23T07:54:52.302Z,99901.63
2023-04-23T07:57:20.355Z,99903.09
2023-04-23T07:59:48.322Z,99894.28
2023-04-23T08:02:18.606Z,99868.84
2023-04-23T08:04:46.972Z,99894.69
2023-04-23T08:07:15.071Z,99893.13
2023-04-23T08:09:43.628Z,99897.38
2023-04-23T08:12:11.961Z,99891.31
2023-04-23T08:14:39.909Z,99899.88
2023-04-23T08:17:07.881Z,99892.16
2023-04-23T08:19:37.263Z,99892.06
2023-04-23T08:22:05.856Z,99883.44
2023-04-23T08:24:33.872Z,99878.97
2023-04-23T08:27:01.838Z,99883.00
2023-04-23T08:29:29.840Z,99887.47
2023-04-23T08:31:57.886Z,99880.22
2023-04-23T08:34:26.144Z,99879.63
2023-04-23T08:36:55.481Z,99883.19
2023-04-23T08:39:23.457Z,99874.81
2023-04-23T08:41:55.258Z,99875.41
2023-04-23T08:44:24.186Z,99864.50
2023-04-23T08:46:52.279Z,99878.56
2023-04-23T08:49:20.390Z,99872.75
2023-04-23T08:51:50.522Z,99870.31
2023-04-23T08:54:27.955Z,99870.13
2023-04-23T08:56:57.556Z,99860.88
2023-04-23T08:59:25.780Z,99861.53
2023-04-23T09:01:53.934Z,99860.13
2023-04-23T09:04:22.248Z,99855.16
2023-04-23T09:06:50.217Z,99858.84
2023-04-23T09:09:18.580Z,99851.34
2023-04-23T09:11:47.906Z,99849.53
2023-04-23T09:14:15.871Z,99846.84
2023-04-23T09:16:44.543Z,99847.84
2023-04-23T09:19:12.588Z,99846.84
2023-04-23T09:21:40.721Z,99839.25
2023-04-23T09:24:12.168Z,99828.06
2023-04-23T09:26:47.248Z,99839.97
2023-04-23T09:29:17.590Z,99847.03
2023-04-23T09:31:45.912Z,99837.56
2023-04-23T09:34:13.851Z,99832.81
2023-04-23T09:36:41.827Z,99838.84
2023-04-23T09:39:13.723Z,99828.28
2023-04-23T09:41:41.655Z,99826.81
2023-04-23T09:44:12.420Z,99829.25
2023-04-23T09:46:41.667Z,99828.22
2023-04-23T09:49:10.660Z,99821.41
2023-04-23T09:51:39.475Z,99817.19
2023-04-23T09:54:12.304Z,99818.66
2023-04-23T09:56:40.437Z,99820.81
2023-04-23T09:59:32.057Z,99810.59
2023-04-23T10:02:04.794Z,99811.06
2023-04-23T10:04:32.897Z,99812.09
2023-04-23T10:09:35.509Z,99813.00
2023-04-23T10:12:04.018Z,99798.63
2023-04-23T10:14:33.331Z,99810.91
2023-04-23T10:17:02.024Z,99802.09
2023-04-23T10:19:30.127Z,99798.88
2023-04-23T10:22:12.084Z,99793.22
2023-04-23T10:24:48.699Z,99791.78
2023-04-23T10:27:30.847Z,99780.53
2023-04-23T10:30:06.923Z,99775.47
2023-04-23T10:32:35.000Z,99779.84
2023-04-23T10:35:02.994Z,99778.16
2023-04-23T10:37:31.025Z,99770.69
2023-04-23T10:40:02.632Z,99768.56
2023-04-23T10:42:30.957Z,99759.75
2023-04-23T10:45:04.713Z,99761.66
2023-04-23T10:47:39.642Z,99755.06
2023-04-23T10:50:20.197Z,99751.50
2023-04-23T10:52:51.538Z,99760.31
2023-04-23T10:55:20.394Z,99755.91
2023-04-23T10:58:03.235Z,99758.09
2023-04-23T11:00:32.179Z,99748.66
2023-04-23T11:03:01.574Z,99747.56
2023-04-23T11:05:29.656Z,99735.53
2023-04-23T11:08:18.105Z,99741.44
2023-04-23T11:10:56.856Z,99739.25
2023-04-23T11:13:26.073Z,99743.41
2023-04-23T11:16:19.398Z,99735.13
2023-04-23T11:18:59.374Z,99729.22
2023-04-23T11:22:01.684Z,99727.19
2023-04-23T11:24:30.574Z,99733.06
2023-04-23T11:26:58.610Z,99732.47
2023-04-23T11:29:27.223Z,99715.75
2023-04-23T11:34:27.885Z,99723.03
2023-04-23T11:36:56.316Z,99719.94
2023-04-23T11:39:25.842Z,99722.47
2023-04-23T11:41:54.285Z,99720.97
2023-04-23T11:44:22.875Z,99712.03
2023-04-23T11:46:50.933Z,99704.59
2023-04-23T11:49:18.889Z,99705.72
2023-04-23T11:51:48.792Z,99719.78
2023-04-23T11:54:16.790Z,99708.72
2023-04-23T11:56:44.925Z,99707.88
2023-04-23T11:59:12.845Z,99713.59
2023-04-23T12:01:44.382Z,99683.16
2023-04-23T12:04:16.466Z,99699.41
2023-04-23T12:06:45.713Z,99698.38
2023-04-23T12:09:15.966Z,99697.56
2023-04-23T12:11:44.389Z,99696.19
2023-04-23T12:14:12.836Z,99681.63
2023-04-23T12:16:41.470Z,99686.34
2023-04-23T12:19:09.882Z,99681.53
2023-04-23T12:21:49.167Z,99663.69
2023-04-23T12:24:18.503Z,99666.84
2023-04-23T12:26:46.487Z,99661.22
2023-04-23T12:29:14.456Z,99659.19
2023-04-23T12:31:44.200Z,99666.91
2023-04-23T12:34:13.514Z,99665.34
2023-04-23T12:36:41.496Z,99658.63
2023-04-23T12:39:24.497Z,99660.31
2023-04-23T12:41:52.786Z,99652.53
2023-04-23T12:44:21.148Z,99650.50
2023-04-23T12:46:51.754Z,99649.00
2023-04-23T12:49:19.792Z,99643.09
2023-04-23T12:51:47.762Z,99637.34
2023-04-23T12:54:15.730Z,99632.13
2023-04-23T12:56:45.075Z,99625.91
2023-04-23T12:59:13.001Z,99630.84
2023-04-23T13:01:41.046Z,99632.50
2023-04-23T13:04:09.072Z,99629.19
2023-04-23T13:06:37.276Z,99626.41
2023-04-23T13:09:05.512Z,99625.81
2023-04-23T13:11:33.458Z,99628.53
2023-04-23T13:14:02.774Z,99625.69
2023-04-23T13:16:31.044Z,99627.88
2023-04-23T13:18:59.042Z,99631.75
2023-04-23T13:21:27.053Z,99630.50
2023-04-23T13:23:54.966Z,99631.06
2023-04-23T13:26:22.957Z,99629.88
2023-04-23T13:28:50.917Z,99632.84
2023-04-23T13:31:20.280Z,99625.22
2023-04-23T13:33:48.268Z,99625.88
2023-04-23T13:36:16.218Z,99631.88
2023-04-23T13:38:44.139Z,99628.31
2023-04-23T13:41:12.092Z,99630.31
2023-04-23T13:43:40.026Z,99622.56
2023-04-23T13:46:08.065Z,99617.19
2023-04-23T13:48:37.381Z,99619.25
2023-04-23T13:51:13.581Z,99620.56
2023-04-23T13:53:49.633Z,99612.41
2023-04-23T13:56:17.544Z,99604.56
2023-04-23T13:58:47.339Z,99616.41
2023-04-23T14:01:15.831Z,99615.06
2023-04-23T14:03:45.176Z,99602.81
2023-04-23T14:06:13.129Z,99598.63
2023-04-23T14:08:41.350Z,99600.59
2023-04-23T14:11:09.265Z,99601.69
2023-04-23T14:13:37.399Z,99600.69
2023-04-23T14:16:05.508Z,99597.97
2023-04-23T14:18:33.625Z,99599.63
2023-04-23T14:21:02.933Z,99600.72
2023-04-23T14:23:52.703Z,99599.38
2023-04-23T14:26:40.832Z,99605.16
2023-04-23T14:29:19.823Z,99599.34
2023-04-23T14:31:47.761Z,99600.16
2023-04-23T14:34:16.421Z,99594.06
2023-04-23T14:36:49.173Z,99602.53
2023-04-23T14:39:17.442Z,99591.28
2023-04-23T14:41:45.427Z,99587.91
2023-04-23T14:44:13.347Z,99555.84
2023-04-23T14:46:41.380Z,99595.38
2023-04-23T14:49:09.413Z,99584.63
2023-04-23T14:51:37.472Z,99586.09
2023-04-23T14:54:07.267Z,99588.50
2023-04-23T14:56:35.197Z,99593.28
2023-04-23T14:59:03.321Z,99586.41
2023-04-23T15:01:31.374Z,99588.56
2023-04-23T15:03:59.586Z,99586.34
2023-04-23T15:06:27.610Z,99588.88
2023-04-23T15:08:55.610Z,99583.91
2023-04-23T15:11:24.960Z,99591.94
2023-04-23T15:13:57.759Z,99581.88
2023-04-23T15:16:46.633Z,99580.38
2023-04-23T15:19:17.894Z,99578.63
2023-04-23T15:21:46.187Z,99582.63
2023-04-23T15:24:14.120Z,99575.97
2023-04-23T15:26:43.540Z,99576.88
2023-04-23T15:29:11.559Z,99577.56
2023-04-23T15:31:39.592Z,99573.63
2023-04-23T15:34:09.204Z,99575.28
2023-04-23T15:36:37.904Z,99582.94
2023-04-23T15:39:06.417Z,99571.78
2023-04-23T15:41:34.402Z,99573.03
2023-04-23T15:44:04.280Z,99580.78
2023-04-23T15:46:32.207Z,99587.31
2023-04-23T15:49:00.263Z,99578.59
2023-04-23T15:51:28.218Z,99574.78
2023-04-23T15:53:56.154Z,99574.38
2023-04-23T15:56:24.364Z,99570.63
2023-04-23T15:58:52.336Z,99577.84
2023-04-23T16:01:21.661Z,99575.41
2023-04-23T16:04:07.974Z,99573.63
2023-04-23T16:06:37.153Z,99572.25
2023-04-23T16:09:07.304Z,99574.19
2023-04-23T16:11:35.823Z,99570.63
2023-04-23T16:14:03.746Z,99570.91
2023-04-23T16:16:33.134Z,99572.94
2023-04-23T16:19:02.025Z,99569.13
2023-04-23T16:21:29.993Z,99567.59
2023-04-23T16:23:57.976Z,99563.19
2023-04-23T16:26:25.929Z,99562.50
2023-04-23T16:29:05.402Z,99567.47
2023-04-23T16:31:43.203Z,99563.19
2023-04-23T16:34:11.113Z,99563.50
2023-04-23T16:36:39.082Z,99562.44
2023-04-23T16:39:07.093Z,99564.19
2023-04-23T16:41:35.012Z,99558.63
2023-04-23T16:44:02.947Z,99560.59
2023-04-23T16:46:31.865Z,99553.16
2023-04-23T16:49:01.457Z,99550.00
2023-04-23T16:51:29.691Z,99561.94
2023-04-23T16:53:57.942Z,99568.44
2023-04-23T16:56:25.864Z,99559.44
2023-04-23T16:58:53.830Z,99562.63
2023-04-23T17:01:21.850Z,99562.50
2023-04-23T17:03:49.912Z,99562.81
2023-04-23T17:06:22.170Z,99562.06
2023-04-23T17:08:50.108Z,99567.19
2023-04-23T17:11:18.010Z,99570.63
2023-04-23T17:13:46.034Z,99565.28
2023-04-23T17:16:14.087Z,99568.00
2023-04-23T17:18:42.084Z,99569.88
2023-04-23T17:21:10.130Z,99572.22
2023-04-23T17:23:39.423Z,99572.06
2023-04-23T17:26:07.405Z,99572.97
2023-04-23T17:28:35.804Z,99571.38
2023-04-23T17:31:04.033Z,99579.00
2023-04-23T17:33:32.473Z,99577.00
2023-04-23T17:36:00.409Z,99578.41
2023-04-23T17:38:29.056Z,99576.03
2023-04-23T17:40:58.760Z,99578.25
2023-04-23T17:43:27.382Z,99577.50
2023-04-23T17:45:55.327Z,99574.72
2023-04-23T17:48:23.458Z,99576.94
2023-04-23T17:50:51.398Z,99578.19
2023-04-23T17:53:19.539Z,99581.78
2023-04-23T17:55:47.784Z,99581.41
2023-04-23T17:58:17.142Z,99589.56
2023-04-23T18:00:45.095Z,99587.06
2023-04-23T18:03:16.661Z,99581.28
2023-04-23T18:05:45.087Z,99585.91
2023-04-23T18:08:13.021Z,99588.41
2023-04-23T18:10:41.070Z,99585.53
2023-04-23T18:13:11.588Z,99596.78
2023-04-23T18:15:41.762Z,99600.38
2023-04-23T18:18:09.867Z,99599.53
2023-04-23T18:20:39.106Z,99596.03
2023-04-23T18:23:08.052Z,99593.94
2023-04-23T18:25:36.156Z,99603.97
2023-04-23T18:28:04.599Z,99602.28
2023-04-23T18:30:32.536Z,99601.66
2023-04-23T18:33:04.099Z,99599.38
2023-04-23T18:35:32.227Z,99605.00
2023-04-23T18:38:02.629Z,99596.06
2023-04-23T18:40:30.610Z,99603.34
2023-04-23T18:42:58.576Z,99602.91
2023-04-23T18:45:26.494Z,99608.13
2023-04-23T18:47:58.323Z,99609.38
2023-04-23T18:50:39.010Z,99611.25
2023-04-23T18:53:06.931Z,99602.09
2023-04-23T18:55:34.927Z,99606.81
2023-04-23T18:58:02.881Z,99612.25
2023-04-23T19:00:30.867Z,99612.25
2023-04-23T19:02:59.261Z,99611.19
2023-04-23T19:05:27.433Z,99609.75
2023-04-23T19:07:57.239Z,99616.00
2023-04-23T19:10:25.202Z,99617.66
2023-04-23T19:12:53.168Z,99621.84
2023-04-23T19:15:21.194Z,99634.75
2023-04-23T19:17:49.165Z,99637.28
2023-04-23T19:20:18.689Z,99634.34
2023-04-23T19:22:46.666Z,99633.94
2023-04-23T19:25:16.045Z,99634.56
2023-04-23T19:27:43.978Z,99626.91
2023-04-23T19:30:12.752Z,99626.50
2023-04-23T19:32:40.791Z,99624.38
2023-04-23T19:35:09.233Z,99617.75
2023-04-23T19:37:37.227Z,99628.78
2023-04-23T19:40:05.849Z,99623.59
2023-04-23T19:42:35.150Z,99632.53
2023-04-23T19:45:03.268Z,99625.25
2023-04-23T19:47:32.558Z,99628.34
2023-04-23T19:50:00.620Z,99623.97
2023-04-23T19:52:28.776Z,99629.41
2023-04-23T19:54:56.746Z,99631.25
2023-04-23T19:57:24.716Z,99631.06
2023-04-23T19:59:54.120Z,99630.63
2023-04-23T20:02:22.140Z,99625.63
2023-04-23T20:04:50.097Z,99620.84
2023-04-23T20:07:18.077Z,99619.34
2023-04-23T20:09:46.037Z,99613.06
2023-04-23T20:12:14.218Z,99608.72
2023-04-23T20:14:42.554Z,99607.88
2023-04-23T20:17:11.837Z,99606.78
2023-04-23T20:19:39.994Z,99610.13
2023-04-23T20:22:08.031Z,99612.19
2023-04-23T20:24:38.157Z,99620.47
2023-04-23T20:27:07.046Z,99613.81
2023-04-23T20:29:35.074Z,99615.44
2023-04-23T20:32:03.065Z,99620.84
2023-04-23T20:34:32.339Z,99624.56
2023-04-23T20:37:00.233Z,99621.16
2023-04-23T20:39:28.179Z,99619.66
2023-04-23T20:41:57.859Z,99614.66
2023-04-23T20:44:25.987Z,99618.94
2023-04-23T20:46:53.944Z,99626.44
2023-04-23T20:49:22.423Z,99616.03
2023-04-23T20:51:51.782Z,99616.81
2023-04-23T20:54:19.726Z,99613.50
2023-04-23T20:56:47.702Z,99600.09
2023-04-23T20:59:15.962Z,99607.34
2023-04-23T21:01:44.001Z,99614.56
2023-04-23T21:04:12.340Z,99610.34
2023-04-23T21:06:40.512Z,99601.53
2023-04-23T21:09:10.539Z,99610.69
2023-04-23T21:11:38.488Z,99607.53
2023-04-23T21:14:08.811Z,99603.97
2023-04-23T21:16:36.981Z,99609.38
2023-04-23T21:19:05.108Z,99609.78
2023-04-23T21:21:33.109Z,99606.81
2023-04-23T21:24:01.270Z,99609.78
2023-04-23T21:26:30.730Z,99606.81
2023-04-23T21:28:58.695Z,99611.97
2023-04-23T21:31:35.129Z,99609.38
2023-04-23T21:34:03.146Z,99612.22
2023-04-23T21:36:31.586Z,99608.69
2023-04-23T21:38:59.869Z,99604.91
2023-04-23T21:41:27.781Z,99601.19
2023-04-23T21:43:57.097Z,99604.91
2023-04-23T21:46:25.198Z,99599.66
2023-04-23T21:48:53.656Z,99598.63
2023-04-23T21:51:22.530Z,99596.41
2023-04-23T21:53:50.495Z,99593.34
2023-04-23T21:56:18.600Z,99599.88
2023-04-23T21:58:46.695Z,99598.09
2023-04-23T22:01:17.415Z,99593.06
2023-04-23T22:03:47.013Z,99585.63
2023-04-23T22:06:15.659Z,99592.22
2023-04-23T22:08:44.851Z,99589.34
2023-04-23T22:11:12.891Z,99588.97
2023-04-23T22:13:40.821Z,99594.19
2023-04-23T22:16:24.561Z,99586.84
2023-04-23T22:18:57.688Z,99581.69
2023-04-23T22:21:25.719Z,99580.84
2023-04-23T22:23:53.700Z,99572.63
2023-04-23T22:26:21.724Z,99576.94
2023-04-23T22:28:49.638Z,99571.41
2023-04-23T22:31:18.473Z,99574.94
2023-04-23T22:33:46.495Z,99568.28
2023-04-23T22:36:16.947Z,99566.66
2023-04-23T22:38:44.918Z,99573.25
2023-04-23T22:41:13.270Z,99564.06
2023-04-23T22:43:41.184Z,99569.47
2023-04-23T22:46:09.211Z,99555.28
2023-04-23T22:48:43.970Z,99553.97
2023-04-23T22:51:11.962Z,99555.59
2023-04-23T22:53:41.258Z,99561.56
2023-04-23T22:56:09.176Z,99559.16
2023-04-23T22:58:37.675Z,99562.41
2023-04-23T23:01:06.014Z,99557.66
2023-04-23T23:03:34.177Z,99562.91
2023-04-23T23:06:02.243Z,99560.97
2023-04-23T23:08:30.187Z,99558.78
2023-04-23T23:10:59.477Z,99555.28
2023-04-23T23:13:27.433Z,99554.00
2023-04-23T23:15:55.710Z,99553.09
2023-04-23T23:18:23.692Z,99542.44
2023-04-23T23:20:51.632Z,99541.34
2023-04-23T23:23:19.522Z,99541.53
2023-04-23T23:25:47.442Z,99543.19
2023-04-23T23:28:16.742Z,99536.16
2023-04-23T23:30:44.692Z,99535.03
2023-04-23T23:33:12.657Z,99529.25
2023-04-23T23:35:42.552Z,99519.13
2023-04-23T23:38:12.010Z,99527.59
2023-04-23T23:40:40.029Z,99511.06
2023-04-23T23:43:07.947Z,99514.88
2023-04-23T23:45:37.190Z,99512.38
2023-04-23T23:48:05.719Z,99512.19
2023-04-23T23:50:33.779Z,99508.25
2023-04-23T23:53:01.767Z,99501.84
2023-04-23T23:55:29.844Z,99506.22
2023-04-23T23:57:57.780Z,99500.47
